Time,TemperatureF,DewpointF,PressureIn,WindDirection,WindDirectionDegrees,WindSpeedMPH,WindSpeedGustMPH,Humidity,HourlyPrecipIn,Conditions,Clouds,dailyrainin,SoftwareType,DateUTC
2013-04-27 00:00:00,69.6,66.5,30.25,East,99,0.0,0.0,90,0.00,,,0.00,Wunderground v.1.15,2013-04-27 04:00:00,
2013-04-27 00:05:00,69.4,66.3,30.25,East,98,0.0,0.0,90,0.00,,,0.00,Wunderground v.1.15,2013-04-27 04:05:00,
2013-04-27 00:06:00,69.3,66.0,30.25,East,99,0.0,0.0,90,0.00,,,0.00,weatherlink.com 1.10,2013-04-27 04:06:00,
2013-04-27 00:10:00,69.1,66.4,30.25,East,99,0.0,0.0,91,0.00,,,0.00,Wunderground v.1.15,2013-04-27 04:10:00,
2013-04-27 00:15:00,69.2,66.8,30.25,East,99,0.0,0.0,92,0.00,,,0.00,Wunderground v.1.15,2013-04-27 04:15:00,
2013-04-27 00:20:00,69.3,66.9,30.25,East,99,0.0,0.0,92,0.00,,,0.00,Wunderground v.1.15,2013-04-27 04:20:00,
2013-04-27 00:25:00,69.3,66.9,30.25,East,98,0.0,0.0,92,0.00,,,0.00,Wunderground v.1.15,2013-04-27 04:25:00,
2013-04-27 00:30:00,69.2,66.5,30.25,East,99,0.0,0.0,91,0.00,,,0.00,Wunderground v.1.15,2013-04-27 04:30:00,
2013-04-27 00:39:00,69.0,67.0,30.25,East,98,0.0,0.0,92,0.00,,,0.00,weatherlink.com 1.10,2013-04-27 04:39:00,
2013-04-27 00:45:00,68.8,66.1,30.25,East,99,0.0,0.0,91,0.00,,,0.00,Wunderground v.1.15,2013-04-27 04:45:00,
2013-04-27 00:50:00,68.6,66.2,30.24,East,98,0.0,0.0,92,0.00,,,0.00,Wunderground v.1.15,2013-04-27 04:50:00,
2013-04-27 00:55:00,68.5,66.1,30.24,East,99,0.0,0.0,92,0.00,,,0.00,Wunderground v.1.15,2013-04-27 04:55:00,
2013-04-27 01:05:00,68.2,66.1,30.24,East,98,0.0,0.0,93,0.00,,,0.00,Wunderground v.1.15,2013-04-27 05:05:00,
2013-04-27 01:10:00,68.1,66.0,30.24,East,98,0.0,0.0,93,0.00,,,0.00,Wunderground v.1.15,2013-04-27 05:10:00,
2013-04-27 01:15:00,67.9,65.8,30.24,East,99,0.0,0.0,93,0.00,,,0.00,Wunderground v.1.15,2013-04-27 05:15:00,
2013-04-27 01:20:00,67.8,66.0,30.23,East,98,0.0,0.0,94,0.00,,,0.00,Wunderground v.1.15,2013-04-27 05:20:00,
2013-04-27 01:28:00,67.6,66.0,30.23,East,99,0.0,0.0,94,0.00,,,0.00,weatherlink.com 1.10,2013-04-27 05:28:00,
2013-04-27 01:35:00,67.9,66.7,30.23,East,99,0.0,0.0,96,0.00,,,0.00,Wunderground v.1.15,2013-04-27 05:35:00,
2013-04-27 01:40:00,68.1,66.6,30.23,East,98,0.0,0.0,95,0.00,,,0.00,Wunderground v.1.15,2013-04-27 05:40:00,
2013-04-27 01:45:00,68.1,66.6,30.22,East,99,0.0,0.0,95,0.00,,,0.00,Wunderground v.1.15,2013-04-27 05:45:00,
2013-04-27 01:50:00,67.9,66.4,30.22,East,98,0.0,0.0,95,0.00,,,0.00,Wunderground v.1.15,2013-04-27 05:50:00,
2013-04-27 02:00:00,67.8,66.3,30.22,East,99,0.0,0.0,95,0.00,,,0.00,Wunderground v.1.15,2013-04-27 06:00:00,
2013-04-27 02:05:00,67.6,66.1,30.22,East,98,0.0,0.0,95,0.00,,,0.00,Wunderground v.1.15,2013-04-27 06:05:00,
2013-04-27 02:10:00,67.4,65.9,30.21,East,98,0.0,0.0,95,0.00,,,0.00,Wunderground v.1.15,2013-04-27 06:10:00,
2013-04-27 02:17:00,67.1,66.0,30.21,East,98,0.0,0.0,95,0.00,,,0.00,weatherlink.com 1.10,2013-04-27 06:17:00,
2013-04-27 02:25:00,66.9,65.4,30.21,East,97,0.0,0.0,95,0.00,,,0.00,Wunderground v.1.15,2013-04-27 06:25:00,
2013-04-27 02:30:00,67.0,65.8,30.20,East,98,0.0,0.0,96,0.00,,,0.00,Wunderground v.1.15,2013-04-27 06:30:00,
2013-04-27 02:40:00,67.0,65.8,30.20,East,98,0.0,0.0,96,0.00,,,0.00,Wunderground v.1.15,2013-04-27 06:40:00,
2013-04-27 02:45:00,66.9,65.7,30.20,East,98,0.0,0.0,96,0.00,,,0.00,Wunderground v.1.15,2013-04-27 06:45:00,
2013-04-27 02:50:00,66.8,65.6,30.19,East,98,0.0,0.0,96,0.00,,,0.00,Wunderground v.1.15,2013-04-27 06:50:00,
2013-04-27 02:55:00,66.8,65.6,30.19,East,98,0.0,0.0,96,0.00,,,0.00,Wunderground v.1.15,2013-04-27 06:55:00,
2013-04-27 03:05:00,67.3,66.4,30.19,East,99,0.0,0.0,97,0.00,,,0.00,Wunderground v.1.15,2013-04-27 07:05:00,
2013-04-27 03:10:00,67.1,65.9,30.19,East,98,0.0,0.0,96,0.00,,,0.00,Wunderground v.1.15,2013-04-27 07:10:00,
2013-04-27 03:15:00,67.1,66.2,30.19,East,99,0.0,0.0,97,0.00,,,0.00,Wunderground v.1.15,2013-04-27 07:15:00,
2013-04-27 03:20:00,66.9,65.7,30.19,East,99,0.0,0.0,96,0.00,,,0.00,Wunderground v.1.15,2013-04-27 07:20:00,
2013-04-27 03:25:00,66.8,65.6,30.19,East,99,0.0,0.0,96,0.00,,,0.00,Wunderground v.1.15,2013-04-27 07:25:00,
2013-04-27 03:30:00,66.9,66.0,30.19,East,98,0.0,0.0,97,0.00,,,0.00,Wunderground v.1.15,2013-04-27 07:30:00,
2013-04-27 03:39:00,66.0,65.0,30.19,East,98,0.0,1.0,95,0.00,,,0.00,weatherlink.com 1.10,2013-04-27 07:39:00,
2013-04-27 03:45:00,65.8,64.6,30.19,East,98,0.0,0.0,96,0.00,,,0.00,Wunderground v.1.15,2013-04-27 07:45:00,
2013-04-27 03:50:00,66.2,65.3,30.19,East,98,0.0,0.0,97,0.00,,,0.00,Wunderground v.1.15,2013-04-27 07:50:00,
2013-04-27 03:55:00,65.9,65.0,30.19,East,98,1.0,0.0,96,0.00,,,0.00,weatherlink.com 1.10,2013-04-27 07:55:00,
2013-04-27 04:05:00,66.6,65.7,30.19,East,97,0.0,0.0,97,0.00,,,0.00,Wunderground v.1.15,2013-04-27 08:05:00,
2013-04-27 04:10:00,66.3,65.1,30.19,East,98,0.0,0.0,96,0.00,,,0.00,Wunderground v.1.15,2013-04-27 08:10:00,
2013-04-27 04:15:00,66.4,65.5,30.19,East,98,0.0,0.0,97,0.00,,,0.00,Wunderground v.1.15,2013-04-27 08:15:00,
2013-04-27 04:20:00,66.4,65.5,30.19,East,97,0.0,1.0,97,0.00,,,0.00,Wunderground v.1.15,2013-04-27 08:20:00,
2013-04-27 04:25:00,66.3,65.4,30.19,East,98,0.0,1.0,97,0.00,,,0.00,Wunderground v.1.15,2013-04-27 08:25:00,
2013-04-27 04:35:00,66.4,65.5,30.19,East,98,0.0,1.0,97,0.00,,,0.00,Wunderground v.1.15,2013-04-27 08:35:00,
2013-04-27 04:40:00,66.5,65.6,30.19,East,98,0.0,0.0,97,0.00,,,0.00,Wunderground v.1.15,2013-04-27 08:40:00,
2013-04-27 04:45:00,66.5,65.6,30.20,East,98,0.0,0.0,97,0.00,,,0.00,Wunderground v.1.15,2013-04-27 08:45:00,
2013-04-27 04:50:00,66.5,65.6,30.20,East,98,0.0,0.0,97,0.00,,,0.00,Wunderground v.1.15,2013-04-27 08:50:00,
2013-04-27 04:55:00,66.5,65.6,30.19,East,99,0.0,1.0,97,0.00,,,0.00,Wunderground v.1.15,2013-04-27 08:55:00,
2013-04-27 05:00:00,66.4,65.5,30.20,East,98,0.0,0.0,97,0.00,,,0.00,Wunderground v.1.15,2013-04-27 09:00:00,
2013-04-27 05:10:00,66.2,65.3,30.19,East,99,0.0,0.0,97,0.00,,,0.00,Wunderground v.1.15,2013-04-27 09:10:00,
2013-04-27 05:15:00,66.2,65.3,30.19,East,99,0.0,0.0,97,0.00,,,0.00,Wunderground v.1.15,2013-04-27 09:15:00,
2013-04-27 05:20:00,66.2,65.3,30.19,East,98,0.0,0.0,97,0.00,,,0.00,Wunderground v.1.15,2013-04-27 09:20:00,
2013-04-27 05:25:00,66.2,65.3,30.19,East,99,0.0,0.0,97,0.00,,,0.00,Wunderground v.1.15,2013-04-27 09:25:00,
2013-04-27 05:30:00,66.2,65.3,30.19,East,99,0.0,0.0,97,0.00,,,0.00,Wunderground v.1.15,2013-04-27 09:30:00,
2013-04-27 05:40:00,66.1,65.2,30.19,East,98,0.0,0.0,97,0.00,,,0.00,Wunderground v.1.15,2013-04-27 09:40:00,
2013-04-27 05:45:00,65.8,64.9,30.19,East,98,0.0,0.0,97,0.00,,,0.00,Wunderground v.1.15,2013-04-27 09:45:00,
2013-04-27 05:50:00,65.6,64.7,30.19,East,98,0.0,0.0,97,0.00,,,0.00,Wunderground v.1.15,2013-04-27 09:50:00,
2013-04-27 05:55:00,65.6,64.7,30.19,East,99,0.0,0.0,97,0.00,,,0.00,Wunderground v.1.15,2013-04-27 09:55:00,
2013-04-27 06:05:00,65.6,65.0,30.19,East,99,0.0,0.0,98,0.00,,,0.00,Wunderground v.1.15,2013-04-27 10:05:00,
2013-04-27 06:10:00,65.5,64.6,30.19,East,99,0.0,0.0,97,0.00,,,0.00,Wunderground v.1.15,2013-04-27 10:10:00,
2013-04-27 06:15:00,65.6,65.0,30.19,East,99,0.0,0.0,98,0.00,,,0.00,Wunderground v.1.15,2013-04-27 10:15:00,
2013-04-27 06:20:00,65.8,65.2,30.19,East,99,0.0,0.0,98,0.00,,,0.00,Wunderground v.1.15,2013-04-27 10:20:00,
2013-04-27 06:25:00,65.9,65.3,30.19,East,98,0.0,0.0,98,0.00,,,0.00,Wunderground v.1.15,2013-04-27 10:25:00,
2013-04-27 06:30:00,65.7,65.1,30.19,East,98,0.0,0.0,98,0.00,,,0.00,Wunderground v.1.15,2013-04-27 10:30:00,
2013-04-27 06:38:00,65.4,65.0,30.19,East,98,0.0,0.0,97,0.00,,,0.00,weatherlink.com 1.10,2013-04-27 10:38:00,
2013-04-27 06:45:00,65.2,64.6,30.19,East,98,0.0,0.0,98,0.00,,,0.00,Wunderground v.1.15,2013-04-27 10:45:00,
2013-04-27 06:50:00,65.5,64.9,30.19,East,98,0.0,0.0,98,0.00,,,0.00,Wunderground v.1.15,2013-04-27 10:50:00,
2013-04-27 06:55:00,65.7,65.1,30.19,East,99,0.0,0.0,98,0.00,,,0.00,Wunderground v.1.15,2013-04-27 10:55:00,
2013-04-27 07:00:00,65.9,65.3,30.19,East,98,0.0,0.0,98,0.00,,,0.00,Wunderground v.1.15,2013-04-27 11:00:00,
2013-04-27 07:05:00,65.9,65.3,30.19,East,98,0.0,0.0,98,0.00,,,0.00,Wunderground v.1.15,2013-04-27 11:05:00,
2013-04-27 07:11:00,66.2,66.0,30.19,East,98,0.0,1.0,98,0.00,,,0.00,weatherlink.com 1.10,2013-04-27 11:11:00,
2013-04-27 07:20:00,65.9,65.3,30.20,East,98,0.0,0.0,98,0.00,,,0.00,Wunderground v.1.15,2013-04-27 11:20:00,
2013-04-27 07:25:00,66.1,65.5,30.20,East,98,0.0,0.0,98,0.00,,,0.00,Wunderground v.1.15,2013-04-27 11:25:00,
2013-04-27 07:30:00,66.2,65.6,30.20,East,98,0.0,0.0,98,0.00,,,0.00,Wunderground v.1.15,2013-04-27 11:30:00,
2013-04-27 07:40:00,66.5,65.9,30.20,ESE,106,1.0,1.0,98,0.00,,,0.00,Wunderground v.1.15,2013-04-27 11:40:00,
2013-04-27 07:45:00,66.6,66.0,30.21,ESE,105,1.0,1.0,98,0.00,,,0.00,Wunderground v.1.15,2013-04-27 11:45:00,
2013-04-27 07:50:00,66.8,66.2,30.21,ESE,104,0.0,0.0,98,0.00,,,0.00,Wunderground v.1.15,2013-04-27 11:50:00,
2013-04-27 07:55:00,67.1,66.5,30.21,ESE,107,0.0,2.0,98,0.00,,,0.00,Wunderground v.1.15,2013-04-27 11:55:00,
2013-04-27 08:00:00,67.3,66.7,30.21,ESE,111,1.0,2.0,98,0.00,,,0.00,Wunderground v.1.15,2013-04-27 12:00:00,
2013-04-27 08:05:00,67.6,67.0,30.21,ESE,107,1.0,2.0,98,0.00,,,0.00,Wunderground v.1.15,2013-04-27 12:05:00,
2013-04-27 08:15:00,68.3,67.4,30.21,ESE,105,2.0,2.0,97,0.00,,,0.00,Wunderground v.1.15,2013-04-27 12:15:00,
2013-04-27 08:20:00,68.9,67.7,30.21,ESE,113,2.0,2.0,96,0.00,,,0.00,Wunderground v.1.15,2013-04-27 12:20:00,
2013-04-27 08:25:00,69.7,68.5,30.21,ESE,105,1.0,2.0,96,0.00,,,0.00,Wunderground v.1.15,2013-04-27 12:25:00,
2013-04-27 08:30:00,70.4,68.9,30.21,ESE,104,1.0,1.0,95,0.00,,,0.00,Wunderground v.1.15,2013-04-27 12:30:00,
2013-04-27 08:35:00,71.3,69.5,30.21,ESE,103,0.0,1.0,94,0.00,,,0.00,Wunderground v.1.15,2013-04-27 12:35:00,
2013-04-27 08:45:00,73.0,70.2,30.22,East,99,0.0,0.0,91,0.00,,,0.00,Wunderground v.1.15,2013-04-27 12:45:00,
2013-04-27 08:50:00,73.5,69.4,30.21,East,101,1.0,1.0,87,0.00,,,0.00,Wunderground v.1.15,2013-04-27 12:50:00,
2013-04-27 08:55:00,74.0,69.2,30.21,East,95,1.0,1.0,85,0.00,,,0.00,Wunderground v.1.15,2013-04-27 12:55:00,
2013-04-27 09:00:00,74.5,69.7,30.22,ESE,104,1.0,2.0,85,0.00,,,0.00,Wunderground v.1.15,2013-04-27 13:00:00,
2013-04-27 09:10:00,75.5,70.7,30.21,ESE,107,1.0,1.0,85,0.00,,,0.00,Wunderground v.1.15,2013-04-27 13:10:00,
2013-04-27 09:15:00,75.9,69.6,30.21,ESE,106,1.0,1.0,81,0.00,,,0.00,Wunderground v.1.15,2013-04-27 13:15:00,
2013-04-27 09:20:00,76.5,70.2,30.21,NE,54,1.0,1.0,81,0.00,,,0.00,Wunderground v.1.15,2013-04-27 13:20:00,
2013-04-27 09:30:00,76.8,69.0,30.22,ESE,108,1.0,3.0,77,0.00,,,0.00,Wunderground v.1.15,2013-04-27 13:30:00,
2013-04-27 09:35:00,77.3,69.9,30.21,NE,52,1.0,3.0,78,0.00,,,0.00,Wunderground v.1.15,2013-04-27 13:35:00,
2013-04-27 09:40:00,77.7,68.7,30.22,East,96,1.0,1.0,74,0.00,,,0.00,Wunderground v.1.15,2013-04-27 13:40:00,
2013-04-27 09:50:00,77.5,68.6,30.22,ESE,107,1.0,2.0,74,0.00,,,0.00,Wunderground v.1.15,2013-04-27 13:50:00,
2013-04-27 09:55:00,77.6,68.7,30.22,ESE,105,2.0,2.0,74,0.00,,,0.00,Wunderground v.1.15,2013-04-27 13:55:00,
2013-04-27 10:00:00,77.8,67.6,30.22,East,99,2.0,3.0,71,0.00,,,0.00,Wunderground v.1.15,2013-04-27 14:00:00,
2013-04-27 10:10:00,78.0,67.8,30.22,ESE,116,2.0,2.0,71,0.00,,,0.00,Wunderground v.1.15,2013-04-27 14:10:00,
2013-04-27 10:15:00,77.9,68.1,30.22,East,101,1.0,2.0,72,0.00,,,0.00,Wunderground v.1.15,2013-04-27 14:15:00,
2013-04-27 10:20:00,77.3,67.2,30.22,East,98,1.0,1.0,71,0.00,,,0.00,Wunderground v.1.15,2013-04-27 14:20:00,
2013-04-27 10:25:00,77.2,67.9,30.22,ESE,116,2.0,3.0,73,0.00,,,0.00,Wunderground v.1.15,2013-04-27 14:25:00,
2013-04-27 10:30:00,77.8,68.0,30.22,East,91,2.0,2.0,72,0.00,,,0.00,Wunderground v.1.15,2013-04-27 14:30:00,
2013-04-27 10:35:00,78.9,67.9,30.22,East,91,1.0,2.0,69,0.00,,,0.00,Wunderground v.1.15,2013-04-27 14:35:00,
2013-04-27 10:44:00,81.4,69.0,30.23,ESE,118,4.0,4.0,66,0.00,,,0.00,weatherlink.com 1.10,2013-04-27 14:44:00,
2013-04-27 10:50:00,80.4,67.6,30.23,East,94,2.0,2.0,65,0.00,,,0.00,Wunderground v.1.15,2013-04-27 14:50:00,
2013-04-27 10:55:00,80.1,67.3,30.22,ESE,113,2.0,4.0,65,0.00,,,0.00,Wunderground v.1.15,2013-04-27 14:55:00,
2013-04-27 11:00:00,80.5,67.2,30.22,ESE,103,2.0,5.0,64,0.00,,,0.00,Wunderground v.1.15,2013-04-27 15:00:00,
2013-04-27 11:10:00,80.5,67.6,30.22,ESE,103,3.0,3.0,65,0.00,,,0.00,Wunderground v.1.15,2013-04-27 15:10:00,
2013-04-27 11:15:00,80.8,67.0,30.22,East,82,3.0,3.0,63,0.00,,,0.00,Wunderground v.1.15,2013-04-27 15:15:00,
2013-04-27 11:20:00,81.1,66.4,30.22,East,92,2.0,2.0,61,0.00,,,0.00,Wunderground v.1.15,2013-04-27 15:20:00,
2013-04-27 11:25:00,80.4,66.2,30.22,ESE,109,2.0,4.0,62,0.00,,,0.00,Wunderground v.1.15,2013-04-27 15:25:00,
2013-04-27 11:30:00,79.7,66.9,30.22,SE,136,3.0,5.0,65,0.00,,,0.00,Wunderground v.1.15,2013-04-27 15:30:00,
2013-04-27 11:40:00,80.9,66.7,30.21,NNE,19,3.0,3.0,62,0.00,,,0.00,Wunderground v.1.15,2013-04-27 15:40:00,
2013-04-27 11:45:00,82.2,67.9,30.22,East,96,2.0,3.0,62,0.00,,,0.00,Wunderground v.1.15,2013-04-27 15:45:00,
2013-04-27 11:50:00,82.2,67.9,30.21,ESE,105,3.0,3.0,62,0.00,,,0.00,Wunderground v.1.15,2013-04-27 15:50:00,
2013-04-27 11:55:00,82.6,68.7,30.21,ENE,67,2.0,3.0,63,0.00,,,0.00,Wunderground v.1.15,2013-04-27 15:55:00,
2013-04-27 12:00:00,84.0,66.6,30.21,NNE,16,2.0,3.0,56,0.00,,,0.00,Wunderground v.1.15,2013-04-27 16:00:00,
2013-04-27 12:06:00,83.6,67.0,30.21,ESE,108,1.0,6.0,57,0.00,,,0.00,weatherlink.com 1.10,2013-04-27 16:06:00,
2013-04-27 12:15:00,84.7,65.7,30.21,East,84,1.0,6.0,53,0.00,,,0.00,Wunderground v.1.15,2013-04-27 16:15:00,
2013-04-27 12:20:00,85.8,67.8,30.20,ENE,72,1.0,1.0,55,0.00,,,0.00,Wunderground v.1.15,2013-04-27 16:20:00,
2013-04-27 12:25:00,85.1,64.4,30.20,North,1,1.0,2.0,50,0.00,,,0.00,Wunderground v.1.15,2013-04-27 16:25:00,
2013-04-27 12:35:00,84.6,66.1,30.20,NNW,342,2.0,4.0,54,0.00,,,0.00,Wunderground v.1.15,2013-04-27 16:35:00,
2013-04-27 12:40:00,84.1,64.6,30.19,East,99,2.0,2.0,52,0.00,,,0.00,Wunderground v.1.15,2013-04-27 16:40:00,
2013-04-27 12:45:00,83.9,66.0,30.19,East,99,3.0,3.0,55,0.00,,,0.00,Wunderground v.1.15,2013-04-27 16:45:00,
2013-04-27 12:50:00,84.8,65.2,30.19,East,89,3.0,3.0,52,0.00,,,0.00,Wunderground v.1.15,2013-04-27 16:50:00,
2013-04-27 13:00:00,85.0,64.8,30.19,ESE,113,2.0,6.0,51,0.00,,,0.00,Wunderground v.1.15,2013-04-27 17:00:00,
2013-04-27 13:05:00,84.0,64.5,30.19,ESE,109,2.0,6.0,52,0.00,,,0.00,Wunderground v.1.15,2013-04-27 17:05:00,
2013-04-27 13:10:00,82.9,66.1,30.19,ESE,105,3.0,3.0,57,0.00,,,0.00,Wunderground v.1.15,2013-04-27 17:10:00,
2013-04-27 13:15:00,81.9,66.2,30.19,East,98,4.0,4.0,59,0.00,,,0.00,Wunderground v.1.15,2013-04-27 17:15:00,
2013-04-27 13:20:00,81.1,65.4,30.19,ESE,107,3.0,5.0,59,0.00,,,0.00,Wunderground v.1.15,2013-04-27 17:20:00,
2013-04-27 13:25:00,81.1,65.9,30.19,ESE,108,3.0,5.0,60,0.00,,,0.00,Wunderground v.1.15,2013-04-27 17:25:00,
2013-04-27 13:35:00,83.4,68.1,30.18,ESE,122,2.0,2.0,60,0.00,,,0.00,Wunderground v.1.15,2013-04-27 17:35:00,
2013-04-27 13:40:00,82.5,66.2,30.18,East,88,3.0,3.0,58,0.00,,,0.00,Wunderground v.1.15,2013-04-27 17:40:00,
2013-04-27 13:45:00,82.2,68.8,30.18,ESE,112,3.0,3.0,64,0.00,,,0.00,Wunderground v.1.15,2013-04-27 17:45:00,
2013-04-27 13:50:00,82.3,65.5,30.18,East,96,2.0,3.0,57,0.00,,,0.00,Wunderground v.1.15,2013-04-27 17:50:00,
2013-04-27 13:55:00,82.0,66.7,30.18,ESE,102,2.0,3.0,60,0.00,,,0.00,Wunderground v.1.15,2013-04-27 17:55:00,
2013-04-27 14:05:00,81.8,66.1,30.17,ESE,119,3.0,3.0,59,0.00,,,0.00,Wunderground v.1.15,2013-04-27 18:05:00,
2013-04-27 14:10:00,81.4,66.7,30.17,East,98,3.0,3.0,61,0.00,,,0.00,Wunderground v.1.15,2013-04-27 18:10:00,
2013-04-27 14:15:00,81.4,66.7,30.17,East,101,3.0,3.0,61,0.00,,,0.00,Wunderground v.1.15,2013-04-27 18:15:00,
2013-04-27 14:20:00,82.6,66.3,30.17,ESE,112,2.0,7.0,58,0.00,,,0.00,Wunderground v.1.15,2013-04-27 18:20:00,
2013-04-27 14:30:00,83.7,66.8,30.17,ESE,106,3.0,5.0,57,0.00,,,0.00,Wunderground v.1.15,2013-04-27 18:30:00,
2013-04-27 14:35:00,83.7,66.3,30.17,ENE,77,2.0,5.0,56,0.00,,,0.00,Wunderground v.1.15,2013-04-27 18:35:00,
2013-04-27 14:40:00,83.0,66.7,30.17,East,98,2.0,2.0,58,0.00,,,0.00,Wunderground v.1.15,2013-04-27 18:40:00,
2013-04-27 14:45:00,82.2,67.4,30.17,ESE,116,2.0,3.0,61,0.00,,,0.00,Wunderground v.1.15,2013-04-27 18:45:00,
2013-04-27 14:50:00,82.2,67.4,30.16,NNW,348,2.0,4.0,61,0.00,,,0.00,Wunderground v.1.15,2013-04-27 18:50:00,
2013-04-27 15:00:00,83.4,68.1,30.17,ESE,102,1.0,3.0,60,0.00,,,0.00,Wunderground v.1.15,2013-04-27 19:00:00,
2013-04-27 15:05:00,82.8,67.5,30.16,ESE,115,1.0,6.0,60,0.00,,,0.00,Wunderground v.1.15,2013-04-27 19:05:00,
2013-04-27 15:10:00,82.9,66.1,30.16,East,86,2.0,4.0,57,0.00,,,0.00,Wunderground v.1.15,2013-04-27 19:10:00,
2013-04-27 15:15:00,82.6,66.8,30.16,East,96,2.0,4.0,59,0.00,,,0.00,Wunderground v.1.15,2013-04-27 19:15:00,
2013-04-27 15:20:00,82.8,65.5,30.15,East,101,2.0,5.0,56,0.00,,,0.00,Wunderground v.1.15,2013-04-27 19:20:00,
2013-04-27 15:30:00,82.7,66.9,30.15,ESE,102,2.0,3.0,59,0.00,,,0.00,Wunderground v.1.15,2013-04-27 19:30:00,
2013-04-27 15:35:00,83.1,68.7,30.15,East,84,1.0,3.0,62,0.00,,,0.00,Wunderground v.1.15,2013-04-27 19:35:00,
2013-04-27 15:40:00,84.0,67.1,30.15,NNE,14,2.0,5.0,57,0.00,,,0.00,Wunderground v.1.15,2013-04-27 19:40:00,
2013-04-27 15:45:00,83.2,66.4,30.15,ESE,104,3.0,5.0,57,0.00,,,0.00,Wunderground v.1.15,2013-04-27 19:45:00,
2013-04-27 15:54:00,82.0,68.0,30.14,East,95,3.0,8.0,62,0.00,,,0.00,weatherlink.com 1.10,2013-04-27 19:54:00,
2013-04-27 16:00:00,82.7,66.4,30.14,ESE,113,2.0,2.0,58,0.00,,,0.00,Wunderground v.1.15,2013-04-27 20:00:00,
2013-04-27 16:05:00,82.5,65.2,30.14,SE,146,2.0,2.0,56,0.00,,,0.00,Wunderground v.1.15,2013-04-27 20:05:00,
2013-04-27 16:10:00,82.1,65.4,30.14,East,98,2.0,2.0,57,0.00,,,0.00,Wunderground v.1.15,2013-04-27 20:10:00,
2013-04-27 16:15:00,82.4,67.1,30.14,WNW,298,2.0,2.0,60,0.00,,,0.00,Wunderground v.1.15,2013-04-27 20:15:00,
2013-04-27 16:20:00,83.1,69.2,30.14,East,98,1.0,2.0,63,0.00,,,0.00,Wunderground v.1.15,2013-04-27 20:20:00,
2013-04-27 16:27:00,82.8,68.0,30.13,NNW,344,2.0,5.0,61,0.00,,,0.00,weatherlink.com 1.10,2013-04-27 20:27:00,
2013-04-27 16:35:00,82.9,66.6,30.13,ESE,105,1.0,2.0,58,0.00,,,0.00,Wunderground v.1.15,2013-04-27 20:35:00,
2013-04-27 16:40:00,82.9,68.1,30.13,East,88,1.0,1.0,61,0.00,,,0.00,Wunderground v.1.15,2013-04-27 20:40:00,
2013-04-27 16:45:00,83.2,66.9,30.13,NNW,340,1.0,3.0,58,0.00,,,0.00,Wunderground v.1.15,2013-04-27 20:45:00,
2013-04-27 16:55:00,82.3,67.5,30.13,East,94,2.0,5.0,61,0.00,,,0.00,Wunderground v.1.15,2013-04-27 20:55:00,
2013-04-27 17:00:00,81.9,67.1,30.13,ESE,113,1.0,4.0,61,0.00,,,0.00,Wunderground v.1.15,2013-04-27 21:00:00,
2013-04-27 17:05:00,81.2,66.9,30.13,SE,125,2.0,4.0,62,0.00,,,0.00,Wunderground v.1.15,2013-04-27 21:05:00,
2013-04-27 17:10:00,80.8,65.6,30.13,ENE,67,3.0,3.0,60,0.00,,,0.00,Wunderground v.1.15,2013-04-27 21:10:00,
2013-04-27 17:15:00,81.1,66.8,30.13,ESE,104,2.0,3.0,62,0.00,,,0.00,Wunderground v.1.15,2013-04-27 21:15:00,
2013-04-27 17:20:00,80.5,65.8,30.13,ENE,70,2.0,2.0,61,0.00,,,0.00,Wunderground v.1.15,2013-04-27 21:20:00,
2013-04-27 17:30:00,80.5,65.8,30.13,East,92,2.0,2.0,61,0.00,,,0.00,Wunderground v.1.15,2013-04-27 21:30:00,
2013-04-27 17:35:00,80.7,65.5,30.13,ENE,57,2.0,2.0,60,0.00,,,0.00,Wunderground v.1.15,2013-04-27 21:35:00,
2013-04-27 17:40:00,80.6,65.4,30.13,ESE,104,2.0,2.0,60,0.00,,,0.00,Wunderground v.1.15,2013-04-27 21:40:00,
2013-04-27 17:45:00,80.3,66.1,30.12,ESE,103,2.0,2.0,62,0.00,,,0.00,Wunderground v.1.15,2013-04-27 21:45:00,
2013-04-27 17:55:00,80.6,65.9,30.12,East,86,1.0,1.0,61,0.00,,,0.00,Wunderground v.1.15,2013-04-27 21:55:00,
2013-04-27 18:00:00,80.6,65.9,30.12,ENE,57,1.0,1.0,61,0.00,,,0.00,Wunderground v.1.15,2013-04-27 22:00:00,
2013-04-27 18:10:00,80.5,64.9,30.13,ENE,77,2.0,2.0,59,0.00,,,0.00,Wunderground v.1.15,2013-04-27 22:10:00,
2013-04-27 18:15:00,80.4,65.2,30.13,ENE,77,1.0,2.0,60,0.00,,,0.00,Wunderground v.1.15,2013-04-27 22:15:00,
2013-04-27 18:21:00,80.2,65.0,30.12,ENE,77,1.0,5.0,59,0.00,,,0.00,weatherlink.com 1.10,2013-04-27 22:21:00,
2013-04-27 18:30:00,79.8,64.2,30.13,ENE,60,2.0,2.0,59,0.00,,,0.00,Wunderground v.1.15,2013-04-27 22:30:00,
2013-04-27 18:35:00,79.8,64.7,30.13,ENE,63,1.0,2.0,60,0.00,,,0.00,Wunderground v.1.15,2013-04-27 22:35:00,
2013-04-27 18:40:00,79.8,65.6,30.13,East,82,1.0,1.0,62,0.00,,,0.00,Wunderground v.1.15,2013-04-27 22:40:00,
2013-04-27 18:50:00,79.6,65.0,30.13,East,81,1.0,4.0,61,0.00,,,0.00,Wunderground v.1.15,2013-04-27 22:50:00,
2013-04-27 18:55:00,79.4,64.3,30.13,East,89,1.0,4.0,60,0.00,,,0.00,Wunderground v.1.15,2013-04-27 22:55:00,
2013-04-27 19:00:00,79.2,64.6,30.13,ESE,103,1.0,2.0,61,0.00,,,0.00,Wunderground v.1.15,2013-04-27 23:00:00,
2013-04-27 19:05:00,79.0,65.3,30.13,ENE,77,1.0,2.0,63,0.00,,,0.00,Wunderground v.1.15,2013-04-27 23:05:00,
2013-04-27 19:10:00,78.8,65.1,30.13,ENE,69,1.0,1.0,63,0.00,,,0.00,Wunderground v.1.15,2013-04-27 23:10:00,
2013-04-27 19:15:00,78.5,65.3,30.13,ENE,65,1.0,1.0,64,0.00,,,0.00,Wunderground v.1.15,2013-04-27 23:15:00,
2013-04-27 19:25:00,77.7,66.7,30.13,ENE,74,1.0,1.0,69,0.00,,,0.00,Wunderground v.1.15,2013-04-27 23:25:00,
2013-04-27 19:30:00,77.3,66.7,30.13,East,82,1.0,1.0,70,0.00,,,0.00,Wunderground v.1.15,2013-04-27 23:30:00,
2013-04-27 19:35:00,76.9,66.8,30.13,NE,50,1.0,2.0,71,0.00,,,0.00,Wunderground v.1.15,2013-04-27 23:35:00,
2013-04-27 19:40:00,76.4,66.7,30.13,ENE,68,1.0,1.0,72,0.00,,,0.00,Wunderground v.1.15,2013-04-27 23:40:00,
2013-04-27 19:45:00,76.1,66.4,30.13,ENE,72,1.0,1.0,72,0.00,,,0.00,Wunderground v.1.15,2013-04-27 23:45:00,
2013-04-27 19:55:00,75.5,66.2,30.13,ENE,60,1.0,1.0,73,0.00,,,0.00,Wunderground v.1.15,2013-04-27 23:55:00,
2013-04-27 20:00:00,75.1,66.2,30.13,NE,34,0.0,2.0,74,0.00,,,0.00,Wunderground v.1.15,2013-04-28 00:00:00,
2013-04-27 20:05:00,74.8,66.7,30.13,East,82,0.0,2.0,76,0.00,,,0.00,Wunderground v.1.15,2013-04-28 00:05:00,
2013-04-27 20:10:00,74.5,66.4,30.13,NE,51,0.0,0.0,76,0.00,,,0.00,Wunderground v.1.15,2013-04-28 00:10:00,
2013-04-27 20:15:00,74.1,66.0,30.13,ENE,57,0.0,0.0,76,0.00,,,0.00,Wunderground v.1.15,2013-04-28 00:15:00,
2013-04-27 20:20:00,73.9,66.2,30.14,ENE,67,0.0,0.0,77,0.00,,,0.00,Wunderground v.1.15,2013-04-28 00:20:00,
2013-04-27 20:30:00,73.4,66.1,30.14,ENE,58,0.0,0.0,78,0.00,,,0.00,Wunderground v.1.15,2013-04-28 00:30:00,
2013-04-27 20:35:00,73.2,65.9,30.14,ENE,74,0.0,1.0,78,0.00,,,0.00,Wunderground v.1.15,2013-04-28 00:35:00,
2013-04-27 20:40:00,73.0,66.1,30.14,ENE,71,0.0,0.0,79,0.00,,,0.00,Wunderground v.1.15,2013-04-28 00:40:00,
2013-04-27 20:45:00,72.9,66.0,30.14,ENE,71,0.0,0.0,79,0.00,,,0.00,Wunderground v.1.15,2013-04-28 00:45:00,
2013-04-27 20:50:00,72.6,65.7,30.15,ENE,74,0.0,1.0,79,0.00,,,0.00,Wunderground v.1.15,2013-04-28 00:50:00,
2013-04-27 20:55:00,72.4,65.9,30.15,ENE,73,0.0,1.0,80,0.00,,,0.00,Wunderground v.1.15,2013-04-28 00:55:00,
2013-04-27 21:03:00,72.1,66.0,30.14,ENE,65,0.0,1.0,81,0.00,,,0.00,weatherlink.com 1.10,2013-04-28 01:03:00,
2013-04-27 21:10:00,71.9,65.8,30.15,East,95,0.0,0.0,81,0.00,,,0.00,Wunderground v.1.15,2013-04-28 01:10:00,
2013-04-27 21:15:00,71.8,66.0,30.15,East,93,0.0,0.0,82,0.00,,,0.00,Wunderground v.1.15,2013-04-28 01:15:00,
2013-04-27 21:20:00,71.7,65.9,30.15,ENE,57,0.0,0.0,82,0.00,,,0.00,Wunderground v.1.15,2013-04-28 01:20:00,
2013-04-27 21:25:00,71.5,65.7,30.15,ENE,66,0.0,0.0,82,0.00,,,0.00,Wunderground v.1.15,2013-04-28 01:25:00,
2013-04-27 21:35:00,71.2,65.8,30.15,East,89,0.0,0.0,83,0.00,,,0.00,Wunderground v.1.15,2013-04-28 01:35:00,
2013-04-27 21:40:00,71.0,65.6,30.15,East,88,0.0,0.0,83,0.00,,,0.00,Wunderground v.1.15,2013-04-28 01:40:00,
2013-04-27 21:45:00,70.8,65.7,30.16,East,88,0.0,0.0,84,0.00,,,0.00,Wunderground v.1.15,2013-04-28 01:45:00,
2013-04-27 21:50:00,70.7,65.6,30.16,ENE,70,0.0,0.0,84,0.00,,,0.00,Wunderground v.1.15,2013-04-28 01:50:00,
2013-04-27 21:55:00,70.5,65.4,30.16,ENE,70,0.0,0.0,84,0.00,,,0.00,Wunderground v.1.15,2013-04-28 01:55:00,
2013-04-27 22:00:00,70.3,65.6,30.16,ENE,70,0.0,0.0,85,0.00,,,0.00,Wunderground v.1.15,2013-04-28 02:00:00,
2013-04-27 22:08:00,70.2,65.0,30.16,East,82,0.0,1.0,85,0.00,,,0.00,weatherlink.com 1.10,2013-04-28 02:08:00,
2013-04-27 22:15:00,70.1,65.4,30.16,East,81,0.0,1.0,85,0.00,,,0.00,Wunderground v.1.15,2013-04-28 02:15:00,
2013-04-27 22:20:00,70.0,65.6,30.16,East,82,0.0,0.0,86,0.00,,,0.00,Wunderground v.1.15,2013-04-28 02:20:00,
2013-04-27 22:25:00,70.0,65.6,30.16,East,83,0.0,0.0,86,0.00,,,0.00,Wunderground v.1.15,2013-04-28 02:25:00,
2013-04-27 22:30:00,70.0,65.6,30.16,East,79,0.0,0.0,86,0.00,,,0.00,Wunderground v.1.15,2013-04-28 02:30:00,
2013-04-27 22:35:00,70.0,66.0,30.17,East,79,0.0,0.0,87,0.00,,,0.00,Wunderground v.1.15,2013-04-28 02:35:00,
2013-04-27 22:45:00,69.9,65.9,30.17,East,94,0.0,0.0,87,0.00,,,0.00,Wunderground v.1.15,2013-04-28 02:45:00,
2013-04-27 22:50:00,69.7,65.7,30.16,East,94,0.0,0.0,87,0.00,,,0.00,Wunderground v.1.15,2013-04-28 02:50:00,
2013-04-27 22:55:00,69.6,65.6,30.16,East,93,0.0,0.0,87,0.00,,,0.00,Wunderground v.1.15,2013-04-28 02:55:00,
2013-04-27 23:00:00,69.4,65.7,30.16,East,94,0.0,0.0,88,0.00,,,0.00,Wunderground v.1.15,2013-04-28 03:00:00,
2013-04-27 23:10:00,69.3,65.6,30.16,East,93,0.0,0.0,88,0.00,,,0.00,Wunderground v.1.15,2013-04-28 03:10:00,
2013-04-27 23:15:00,69.2,65.8,30.17,East,94,0.0,0.0,89,0.00,,,0.00,Wunderground v.1.15,2013-04-28 03:15:00,
2013-04-27 23:20:00,69.2,65.8,30.16,East,91,0.0,0.0,89,0.00,,,0.00,Wunderground v.1.15,2013-04-28 03:20:00,
2013-04-27 23:25:00,69.0,65.6,30.16,East,92,0.0,0.0,89,0.00,,,0.00,Wunderground v.1.15,2013-04-28 03:25:00,
2013-04-27 23:35:00,68.8,65.7,30.16,East,92,0.0,0.0,90,0.00,,,0.00,Wunderground v.1.15,2013-04-28 03:35:00,
2013-04-27 23:40:00,68.8,65.7,30.16,East,90,0.0,0.0,90,0.00,,,0.00,Wunderground v.1.15,2013-04-28 03:40:00,
2013-04-27 23:45:00,68.7,65.6,30.16,East,90,0.0,0.0,90,0.00,,,0.00,Wunderground v.1.15,2013-04-28 03:45:00,
2013-04-27 23:50:00,68.6,65.5,30.16,East,90,0.0,0.0,90,0.00,,,0.00,Wunderground v.1.15,2013-04-28 03:50:00,
2013-04-27 23:55:00,68.6,65.9,30.16,East,91,0.0,0.0,91,0.00,,,0.00,Wunderground v.1.15,2013-04-28 03:55:00,